Time;durP1;ratioP1;P1;durP2;ratioP2;P2;SDS_P1;SDS_P2;PMS_P1;PMS_P2;Temp;Humidity;BMP_temperature;BMP_pressure;BME280_temperature;BME280_humidity;BME280_pressure;Samples;Min_cycle;Max_cycle;Signal;HPM_P1;HPM_P2
2021/07/06 00:00:25;;;;;;;18.73;16.83;;;;;23.40;99547.00;;;;2072567;28;20218;-57
2021/07/06 00:01:26;;;;;;;18.27;15.70;;;;;23.50;99539.00;;;;2073902;28;20715;-55
2021/07/06 00:02:26;;;;;;;19.07;17.07;;;;;23.50;99537.00;;;;2071886;28;20229;-54
2021/07/06 00:03:26;;;;;;;17.20;15.50;;;;;23.60;99537.00;;;;2073119;28;20214;-55
2021/07/06 00:04:27;;;;;;;16.33;14.63;;;;;23.60;99535.00;;;;2072886;28;20242;-54
2021/07/06 00:05:27;;;;;;;16.10;14.40;;;;;23.60;99536.00;;;;2069793;28;20606;-56
2021/07/06 00:06:27;;;;;;;17.40;14.87;;;;;23.60;99544.00;;;;2073264;28;20253;-55
2021/07/06 00:07:28;;;;;;;15.70;14.10;;;;;23.60;99538.00;;;;2070840;28;20352;-54
2021/07/06 00:08:28;;;;;;;15.30;13.70;;;;;23.60;99533.00;;;;2069477;28;20230;-53
2021/07/06 00:09:28;;;;;;;17.60;15.83;;;;;23.60;99535.00;;;;2073394;28;20219;-54
2021/07/06 00:10:29;;;;;;;15.70;14.00;;;;;23.60;99526.00;;;;2072744;28;20234;-53
2021/07/06 00:11:29;;;;;;;14.43;12.90;;;;;23.60;99524.00;;;;2072717;28;20249;-55
2021/07/06 00:12:30;;;;;;;15.70;14.10;;;;;23.60;99515.00;;;;2069353;28;20256;-55
2021/07/06 00:13:30;;;;;;;16.10;14.40;;;;;23.60;99521.00;;;;2073055;28;20574;-55
2021/07/06 00:14:30;;;;;;;16.90;15.10;;;;;23.60;99512.00;;;;2073899;28;20275;-55
2021/07/06 00:15:31;;;;;;;15.57;13.93;;;;;23.60;99514.00;;;;2071623;28;20222;-55
2021/07/06 00:16:32;;;;;;;14.27;12.88;;;;;23.60;99514.00;;;;2072796;28;20210;-54
2021/07/06 00:17:32;;;;;;;14.00;12.60;;;;;23.60;99516.00;;;;2072853;28;20233;-54
2021/07/06 00:18:32;;;;;;;13.80;12.40;;;;;23.60;99520.00;;;;2073840;28;20752;-54
2021/07/06 00:19:33;;;;;;;14.30;12.90;;;;;23.60;99517.00;;;;2076005;28;20694;-54
2021/07/06 00:20:34;;;;;;;13.47;12.07;;;;;23.60;99529.00;;;;2071667;28;20336;-55
2021/07/06 00:21:34;;;;;;;13.37;12.07;;;;;23.60;99527.00;;;;2073288;28;20559;-54
2021/07/06 00:22:35;;;;;;;13.70;12.30;;;;;23.60;99527.00;;;;2072879;28;20268;-53
2021/07/06 00:23:35;;;;;;;14.80;13.20;;;;;23.60;99520.00;;;;2070297;28;20210;-54
2021/07/06 00:24:35;;;;;;;13.97;12.57;;;;;23.60;99528.00;;;;2077390;28;20859;-54
2021/07/06 00:25:36;;;;;;;13.30;12.00;;;;;23.60;99528.00;;;;2070714;28;20222;-56
2021/07/06 00:26:36;;;;;;;14.00;12.50;;;;;23.60;99533.00;;;;2073208;28;20283;-54
2021/07/06 00:27:36;;;;;;;14.23;12.70;;;;;23.60;99525.00;;;;2073768;28;20214;-54
2021/07/06 00:28:37;;;;;;;14.30;12.90;;;;;23.60;99520.00;;;;2073847;28;20233;-53
2021/07/06 00:29:37;;;;;;;13.27;11.63;;;;;23.60;99520.00;;;;2070665;28;20301;-54
2021/07/06 00:30:37;;;;;;;12.87;11.47;;;;;23.60;99519.00;;;;2071511;28;20225;-54
2021/07/06 00:31:38;;;;;;;13.93;12.43;;;;;23.60;99522.00;;;;2073031;28;20839;-53
2021/07/06 00:32:38;;;;;;;18.87;13.50;;;;;23.60;99530.00;;;;2073034;28;20220;-55
2021/07/06 00:33:38;;;;;;;13.87;12.47;;;;;23.60;99527.00;;;;2068000;28;20214;-55
2021/07/06 00:34:39;;;;;;;14.03;12.53;;;;;23.60;99523.00;;;;2070310;28;20309;-56
2021/07/06 00:35:40;;;;;;;14.17;12.67;;;;;23.60;99527.00;;;;2069530;28;20233;-56
2021/07/06 00:36:40;;;;;;;14.00;12.60;;;;;23.60;99531.00;;;;2073846;28;20218;-54
2021/07/06 00:37:41;;;;;;;13.23;11.97;;;;;23.60;99522.00;;;;2073342;28;20449;-54
2021/07/06 00:38:41;;;;;;;14.33;12.57;;;;;23.60;99523.00;;;;2074472;28;20206;-53
2021/07/06 00:39:42;;;;;;;15.50;13.23;;;;;23.60;99520.00;;;;2073252;28;20345;-53
2021/07/06 00:40:42;;;;;;;13.13;11.93;;;;;23.60;99523.00;;;;2076411;28;20881;-55
2021/07/06 00:41:44;;;;;;;13.90;12.53;;;;;23.60;99523.00;;;;2075187;28;20325;-53
2021/07/06 00:42:46;;;;;;;11.73;10.55;;;;;23.60;99516.00;;;;2072282;28;20210;-54
2021/07/06 00:43:47;;;;;;;11.25;10.05;;;;;23.70;99512.00;;;;2073262;28;20675;-54
2021/07/06 00:44:47;;;;;;;12.30;11.00;;;;;23.70;99521.00;;;;2075499;28;20233;-54
2021/07/06 00:45:48;;;;;;;11.40;10.20;;;;;23.70;99520.00;;;;2073743;28;20210;-54
2021/07/06 00:46:48;;;;;;;10.87;9.83;;;;;23.70;99512.00;;;;2064995;28;20214;-54
2021/07/06 00:47:49;;;;;;;12.03;10.83;;;;;23.70;99517.00;;;;2063952;28;20233;-54
2021/07/06 00:48:49;;;;;;;11.27;10.17;;;;;23.70;99509.00;;;;2065036;28;20718;-54
2021/07/06 00:49:49;;;;;;;10.80;9.80;;;;;23.70;99511.00;;;;2068671;28;20632;-54
2021/07/06 00:50:50;;;;;;;11.03;9.93;;;;;23.70;99501.00;;;;2066282;28;20215;-54
2021/07/06 00:51:50;;;;;;;10.67;9.57;;;;;23.70;99510.00;;;;2071074;28;20239;-54
2021/07/06 00:52:51;;;;;;;10.50;9.50;;;;;23.70;99506.00;;;;2066471;28;20294;-54
2021/07/06 00:53:52;;;;;;;11.57;10.17;;;;;23.60;99509.00;;;;2066418;28;20692;-55
2021/07/06 00:54:52;;;;;;;11.10;10.07;;;;;23.60;99507.00;;;;2063439;28;20219;-54
2021/07/06 00:55:54;;;;;;;10.63;9.13;;;;;23.70;99515.00;;;;2067415;28;20476;-54
2021/07/06 00:56:55;;;;;;;11.27;10.18;;;;;23.70;99501.00;;;;2067627;28;20246;-54
2021/07/06 00:57:55;;;;;;;11.20;10.10;;;;;23.70;99504.00;;;;2065809;28;20302;-54
2021/07/06 00:58:55;;;;;;;11.43;10.00;;;;;23.70;99509.00;;;;2067336;28;20297;-55
2021/07/06 01:00:00;;;;;;;10.77;9.70;;;;;23.70;99503.00;;;;2067386;28;20202;-55
2021/07/06 01:01:01;;;;;;;10.10;9.15;;;;;23.70;99509.00;;;;2064192;28;20221;-54
2021/07/06 01:02:01;;;;;;;11.77;10.60;;;;;23.70;99511.00;;;;2069722;28;20205;-55
2021/07/06 01:03:02;;;;;;;11.10;9.93;;;;;23.60;99512.00;;;;2067529;28;20301;-54
2021/07/06 01:04:03;;;;;;;11.87;10.67;;;;;23.70;99512.00;;;;2063912;28;20679;-54
2021/07/06 01:05:07;;;;;;;11.90;10.65;;;;;23.70;99509.00;;;;2072429;28;20220;-56
2021/07/06 01:06:08;;;;;;;11.30;10.20;;;;;23.60;99502.00;;;;2063848;28;20234;-53
2021/07/06 01:07:08;;;;;;;11.77;10.57;;;;;23.70;99507.00;;;;2066561;28;20258;-53
2021/07/06 01:08:09;;;;;;;12.33;10.43;;;;;23.70;99505.00;;;;2071098;28;20210;-53
2021/07/06 01:09:09;;;;;;;11.10;10.00;;;;;23.60;99503.00;;;;2066649;28;20629;-55
2021/07/06 01:10:10;;;;;;;11.00;9.90;;;;;23.60;99503.00;;;;2067104;28;20222;-54
2021/07/06 01:11:11;;;;;;;11.30;10.10;;;;;23.70;99514.00;;;;2066284;28;20611;-53
2021/07/06 01:12:12;;;;;;;10.30;9.30;;;;;23.70;99517.00;;;;2067030;28;20296;-55
2021/07/06 01:13:12;;;;;;;11.00;9.90;;;;;23.60;99518.00;;;;2066445;28;20325;-53
2021/07/06 01:14:15;;;;;;;11.10;10.00;;;;;23.60;99515.00;;;;2063804;28;20297;-53
2021/07/06 01:15:18;;;;;;;10.57;9.57;;;;;23.60;99513.00;;;;2062370;28;20211;-53
2021/07/06 01:16:18;;;;;;;11.55;10.35;;;;;23.70;99512.00;;;;2059614;28;20215;-53
2021/07/06 01:17:28;;;;;;;11.40;10.30;;;;;23.70;99515.00;;;;2074365;28;20224;-57
2021/07/06 01:18:28;;;;;;;11.70;10.50;;;;;23.70;99515.00;;;;2063711;28;20238;-54
2021/07/06 01:19:29;;;;;;;10.63;9.63;;;;;23.60;99503.00;;;;2066968;28;20218;-53
2021/07/06 01:20:29;;;;;;;11.10;9.90;;;;;23.70;99502.00;;;;2062782;28;20228;-54
2021/07/06 01:21:32;;;;;;;11.20;10.20;;;;;23.70;99502.00;;;;2062988;28;20211;-54
2021/07/06 01:22:33;;;;;;;11.48;10.38;;;;;23.60;99497.00;;;;2070228;28;20502;-53
2021/07/06 01:23:33;;;;;;;11.03;9.87;;;;;23.70;99500.00;;;;2063752;28;20222;-53
2021/07/06 01:24:37;;;;;;;10.47;9.47;;;;;23.60;99496.00;;;;2065959;28;20754;-54
2021/07/06 01:25:39;;;;;;;11.05;9.85;;;;;23.70;99496.00;;;;2071753;28;20210;-54
2021/07/06 01:26:39;;;;;;;11.48;10.27;;;;;23.70;99496.00;;;;2068143;28;20322;-54
2021/07/06 01:27:39;;;;;;;12.60;11.13;;;;;23.60;99500.00;;;;2065893;28;22906;-53
2021/07/06 01:28:41;;;;;;;11.73;9.70;;;;;23.60;99499.00;;;;2067216;28;20322;-54
2021/07/06 01:29:42;;;;;;;10.23;9.15;;;;;23.60;99488.00;;;;2063313;28;20225;-55
2021/07/06 01:30:42;;;;;;;10.53;9.43;;;;;23.60;99487.00;;;;2067008;28;20675;-54
2021/07/06 01:31:49;;;;;;;10.83;9.73;;;;;23.60;99485.00;;;;2073068;28;20575;-54
2021/07/06 01:32:50;;;;;;;10.40;9.40;;;;;23.60;99472.00;;;;2071314;28;20206;-54
2021/07/06 01:33:50;;;;;;;11.00;9.83;;;;;23.60;99462.00;;;;2070570;28;20210;-53
2021/07/06 01:34:50;;;;;;;10.57;9.47;;;;;23.60;99464.00;;;;2067419;28;20264;-53
2021/07/06 01:35:52;;;;;;;11.50;9.93;;;;;23.60;99465.00;;;;2064402;28;20759;-54
2021/07/06 01:36:53;;;;;;;10.80;9.70;;;;;23.60;99457.00;;;;2066264;28;20210;-53
2021/07/06 01:37:58;;;;;;;11.80;10.30;;;;;23.60;99457.00;;;;2063840;28;20223;-55
2021/07/06 01:38:58;;;;;;;10.77;9.50;;;;;23.60;99457.00;;;;2068700;28;20469;-53
2021/07/06 01:39:59;;;;;;;10.83;9.63;;;;;23.70;99459.00;;;;2067157;28;20305;-54
2021/07/06 01:41:00;;;;;;;10.80;9.50;;;;;23.60;99459.00;;;;2062177;28;20250;-54
2021/07/06 01:42:00;;;;;;;10.55;9.27;;;;;23.60;99447.00;;;;2067968;28;20210;-53
2021/07/06 01:43:01;;;;;;;9.80;8.90;;;;;23.60;99448.00;;;;2068002;28;20604;-53
2021/07/06 01:44:01;;;;;;;10.50;9.50;;;;;23.70;99450.00;;;;2065180;28;20235;-55
2021/07/06 01:45:06;;;;;;;9.80;8.70;;;;;23.70;99452.00;;;;2063657;28;20611;-54
2021/07/06 01:46:07;;;;;;;10.23;9.23;;;;;23.70;99451.00;;;;2068138;28;20218;-55
2021/07/06 01:47:07;;;;;;;10.30;9.27;;;;;23.60;99463.00;;;;2071465;28;20210;-54
2021/07/06 01:48:08;;;;;;;11.00;9.90;;;;;23.70;99452.00;;;;2071629;28;20592;-54
2021/07/06 01:49:14;;;;;;;11.13;9.57;;;;;23.60;99458.00;;;;2071082;28;20222;-54
2021/07/06 01:50:16;;;;;;;9.45;8.55;;;;;23.60;99459.00;;;;2065769;28;20255;-53
2021/07/06 01:51:16;;;;;;;10.13;9.13;;;;;23.60;99455.00;;;;2065718;28;20266;-53
2021/07/06 01:52:17;;;;;;;9.73;8.70;;;;;23.60;99472.00;;;;2067436;28;20272;-54
2021/07/06 01:53:18;;;;;;;10.80;9.70;;;;;23.60;99449.00;;;;2063439;28;20676;-54
2021/07/06 01:54:19;;;;;;;9.80;8.80;;;;;23.60;99461.00;;;;2068958;28;20687;-53
2021/07/06 01:55:21;;;;;;;9.60;8.70;;;;;23.60;99444.00;;;;2071422;28;20333;-53
2021/07/06 01:56:21;;;;;;;9.80;8.80;;;;;23.70;99446.00;;;;2067113;28;20223;-53
2021/07/06 01:57:24;;;;;;;10.77;9.77;;;;;23.60;99448.00;;;;2063358;28;20215;-55
2021/07/06 01:58:26;;;;;;;9.82;8.93;;;;;23.60;99457.00;;;;2065218;28;20226;-55
2021/07/06 01:59:26;;;;;;;9.60;8.70;;;;;23.60;99450.00;;;;2068894;28;20234;-53
2021/07/06 02:00:28;;;;;;;10.47;9.40;;;;;23.70;99442.00;;;;2066059;28;20222;-53
2021/07/06 02:01:28;;;;;;;9.75;8.85;;;;;23.60;99441.00;;;;2069685;28;20353;-54
2021/07/06 02:02:29;;;;;;;9.50;8.60;;;;;23.70;99436.00;;;;2063154;28;20635;-55
2021/07/06 02:03:29;;;;;;;9.70;8.70;;;;;23.60;99438.00;;;;2066798;28;20218;-53
2021/07/06 02:04:30;;;;;;;9.27;8.33;;;;;23.70;99438.00;;;;2064267;28;20211;-54
2021/07/06 02:05:39;;;;;;;9.87;8.87;;;;;23.60;99436.00;;;;2066181;28;20223;-54
2021/07/06 02:06:39;;;;;;;9.55;8.63;;;;;23.60;99433.00;;;;2062870;28;20998;-53
2021/07/06 02:07:42;;;;;;;8.97;8.17;;;;;23.60;99440.00;;;;2070620;28;20237;-54
2021/07/06 02:08:43;;;;;;;8.88;8.02;;;;;23.60;99429.00;;;;2064948;28;20230;-56
2021/07/06 02:09:43;;;;;;;9.73;8.83;;;;;23.60;99430.00;;;;2067726;28;20741;-54
2021/07/06 02:10:45;;;;;;;8.97;8.13;;;;;23.60;99436.00;;;;2065974;28;20313;-54
2021/07/06 02:11:45;;;;;;;10.07;9.07;;;;;23.60;99429.00;;;;2065861;28;20700;-55
2021/07/06 02:12:46;;;;;;;8.80;7.90;;;;;23.60;99434.00;;;;2063277;28;20222;-54
2021/07/06 02:13:46;;;;;;;9.73;8.80;;;;;23.60;99422.00;;;;2066057;28;20726;-54
2021/07/06 02:14:46;;;;;;;8.90;8.03;;;;;23.60;99424.00;;;;2064337;28;20230;-53
2021/07/06 02:15:47;;;;;;;9.50;8.60;;;;;23.60;99422.00;;;;2067448;28;20624;-54
2021/07/06 02:16:47;;;;;;;8.80;7.90;;;;;23.60;99425.00;;;;2069710;28;20229;-55
2021/07/06 02:17:48;;;;;;;8.67;7.77;;;;;23.60;99422.00;;;;2065806;28;20214;-53
2021/07/06 02:18:48;;;;;;;8.63;7.83;;;;;23.60;99421.00;;;;2067466;28;20222;-53
2021/07/06 02:19:48;;;;;;;9.00;8.10;;;;;23.60;99415.00;;;;2064617;28;20238;-53
2021/07/06 02:20:50;;;;;;;7.93;7.13;;;;;23.60;99414.00;;;;2065114;28;20215;-55
2021/07/06 02:21:50;;;;;;;8.70;7.82;;;;;23.60;99419.00;;;;2061756;28;20215;-53
2021/07/06 02:22:51;;;;;;;8.83;7.93;;;;;23.60;99418.00;;;;2066724;28;20549;-53
2021/07/06 02:23:51;;;;;;;8.70;7.90;;;;;23.60;99368.00;;;;2066560;28;20218;-54
2021/07/06 02:24:52;;;;;;;9.03;8.10;;;;;23.60;99416.00;;;;2065858;28;20607;-56
2021/07/06 02:25:52;;;;;;;8.87;8.07;;;;;23.60;99416.00;;;;2062645;28;20560;-54
2021/07/06 02:26:53;;;;;;;9.47;8.57;;;;;23.60;99407.00;;;;2069481;28;20276;-54
2021/07/06 02:27:53;;;;;;;8.90;8.00;;;;;23.60;99406.00;;;;2067325;28;20222;-55
2021/07/06 02:28:54;;;;;;;8.50;7.70;;;;;23.60;99405.00;;;;2066503;28;20714;-55
2021/07/06 02:29:54;;;;;;;8.03;7.33;;;;;23.60;99406.00;;;;2066888;28;20679;-54
2021/07/06 02:30:54;;;;;;;8.20;7.40;;;;;23.60;99394.00;;;;2067015;28;20215;-55
2021/07/06 02:31:55;;;;;;;8.60;7.70;;;;;23.60;99405.00;;;;2067409;28;20305;-54
2021/07/06 02:32:55;;;;;;;7.93;7.20;;;;;23.60;99395.00;;;;2066447;28;20592;-55
2021/07/06 02:33:55;;;;;;;8.30;7.50;;;;;23.60;99397.00;;;;2064138;28;20222;-54
2021/07/06 02:34:56;;;;;;;8.03;7.33;;;;;23.60;99389.00;;;;2067918;28;20568;-54
2021/07/06 02:35:56;;;;;;;8.47;7.67;;;;;23.60;99386.00;;;;2066398;28;20219;-54
2021/07/06 02:36:57;;;;;;;8.10;7.30;;;;;23.60;99381.00;;;;2062919;28;20234;-54
2021/07/06 02:37:58;;;;;;;8.20;7.50;;;;;23.60;99384.00;;;;2069648;28;20214;-53
2021/07/06 02:38:58;;;;;;;9.25;6.95;;;;;23.60;99388.00;;;;2061597;28;20215;-53
2021/07/06 02:39:59;;;;;;;7.30;6.60;;;;;23.60;99396.00;;;;2069168;28;20216;-53
2021/07/06 02:40:59;;;;;;;7.30;6.60;;;;;23.60;99391.00;;;;2062512;28;20264;-54
2021/07/06 02:42:00;;;;;;;7.90;6.97;;;;;23.60;99392.00;;;;2066935;28;20207;-53
2021/07/06 02:43:00;;;;;;;8.00;7.23;;;;;23.60;99389.00;;;;2070593;28;20237;-54
2021/07/06 02:44:01;;;;;;;8.53;7.67;;;;;23.60;99397.00;;;;2069897;28;20218;-54
2021/07/06 02:45:01;;;;;;;8.10;7.37;;;;;23.60;99393.00;;;;2065076;28;20224;-54
2021/07/06 02:46:01;;;;;;;8.50;7.70;;;;;23.60;99399.00;;;;2066402;28;20210;-55
2021/07/06 02:47:02;;;;;;;7.30;6.60;;;;;23.60;99400.00;;;;2067809;28;20564;-59
2021/07/06 02:48:02;;;;;;;6.70;6.10;;;;;23.60;99403.00;;;;2066910;28;20321;-54
2021/07/06 02:49:03;;;;;;;7.67;6.97;;;;;23.60;99406.00;;;;2067034;28;20210;-54
2021/07/06 02:50:04;;;;;;;8.10;7.30;;;;;23.60;99407.00;;;;2065131;28;20211;-53
2021/07/06 02:51:04;;;;;;;7.95;7.15;;;;;23.60;99398.00;;;;2065637;28;20234;-54
2021/07/06 02:52:05;;;;;;;8.13;7.30;;;;;23.60;99394.00;;;;2060741;28;20572;-54
2021/07/06 02:53:07;;;;;;;7.53;6.60;;;;;23.60;99396.00;;;;2062367;28;20348;-54
2021/07/06 02:54:08;;;;;;;7.68;6.93;;;;;23.60;99387.00;;;;2066792;28;20206;-55
2021/07/06 02:55:08;;;;;;;7.13;6.43;;;;;23.60;99385.00;;;;2069700;28;20296;-56
2021/07/06 02:56:09;;;;;;;7.17;6.47;;;;;23.60;99383.00;;;;2070264;28;20210;-56
2021/07/06 02:57:10;;;;;;;9.30;7.40;;;;;23.60;99390.00;;;;2066543;28;20739;-54
2021/07/06 02:58:11;;;;;;;7.75;7.03;;;;;23.60;99382.00;;;;2062145;28;20214;-53
2021/07/06 02:59:11;;;;;;;7.05;6.45;;;;;23.60;99384.00;;;;2061762;28;20246;-54
2021/07/06 03:00:32;;;;;;;7.30;6.60;;;;;23.60;99387.00;;;;2060905;28;20233;-53
2021/07/06 03:01:33;;;;;;;7.75;7.05;;;;;23.60;99387.00;;;;2068456;28;20684;-53
2021/07/06 03:02:33;;;;;;;7.77;6.97;;;;;23.60;99382.00;;;;2070625;28;20222;-55
2021/07/06 03:03:33;;;;;;;7.00;6.40;;;;;23.60;99376.00;;;;2070635;28;20241;-55
2021/07/06 03:04:35;;;;;;;7.43;6.73;;;;;23.60;99381.00;;;;2070350;28;20292;-54
2021/07/06 03:05:35;;;;;;;6.47;5.90;;;;;23.60;99378.00;;;;2070286;28;20256;-54
2021/07/06 03:06:36;;;;;;;7.40;6.70;;;;;23.60;99373.00;;;;2070471;28;20610;-55
2021/07/06 03:07:36;;;;;;;7.13;6.40;;;;;23.60;99380.00;;;;2070610;28;20214;-55
2021/07/06 03:08:37;;;;;;;7.60;6.63;;;;;23.60;99378.00;;;;2070633;28;20224;-54
2021/07/06 03:09:37;;;;;;;7.13;6.53;;;;;23.60;99380.00;;;;2070153;28;20464;-55
2021/07/06 03:10:38;;;;;;;6.77;6.17;;;;;23.60;99366.00;;;;2069298;28;20699;-54
2021/07/06 03:11:40;;;;;;;6.35;5.75;;;;;23.60;99365.00;;;;2070481;28;20221;-54
2021/07/06 03:12:40;;;;;;;7.00;6.40;;;;;23.60;99362.00;;;;2070448;28;20217;-54
2021/07/06 03:13:41;;;;;;;6.70;6.10;;;;;23.60;99370.00;;;;2070839;28;20220;-53
2021/07/06 03:14:41;;;;;;;7.53;6.60;;;;;23.60;99369.00;;;;2070515;28;20210;-53
2021/07/06 03:15:41;;;;;;;6.77;6.17;;;;;23.60;99361.00;;;;2070494;28;20218;-54
2021/07/06 03:16:42;;;;;;;6.40;5.80;;;;;23.60;99367.00;;;;2069975;28;20210;-54
2021/07/06 03:17:42;;;;;;;7.10;6.50;;;;;23.60;99363.00;;;;2069830;28;20217;-57
2021/07/06 03:18:43;;;;;;;6.60;5.90;;;;;23.60;99365.00;;;;2070123;28;20221;-56
2021/07/06 03:19:43;;;;;;;6.60;5.90;;;;;23.60;99367.00;;;;2066630;28;20214;-54
2021/07/06 03:20:43;;;;;;;6.73;6.13;;;;;23.60;99369.00;;;;2061619;28;20714;-55
2021/07/06 03:21:44;;;;;;;6.93;6.27;;;;;23.60;99363.00;;;;2065240;28;20206;-54
2021/07/06 03:22:44;;;;;;;6.00;5.50;;;;;23.60;99364.00;;;;2063925;28;20229;-55
2021/07/06 03:23:45;;;;;;;6.87;5.67;;;;;23.60;99366.00;;;;2062307;28;20233;-55
2021/07/06 03:24:45;;;;;;;6.40;5.80;;;;;23.60;99362.00;;;;2062462;28;20214;-53
2021/07/06 03:25:46;;;;;;;6.30;5.70;;;;;23.60;99362.00;;;;2062408;28;20213;-55
2021/07/06 03:26:46;;;;;;;6.57;5.97;;;;;23.60;99363.00;;;;2061403;28;20711;-56
2021/07/06 03:27:46;;;;;;;6.57;5.97;;;;;23.60;99364.00;;;;2061829;28;20214;-56
2021/07/06 03:28:47;;;;;;;6.30;5.70;;;;;23.60;99356.00;;;;2062114;28;20214;-56
2021/07/06 03:29:47;;;;;;;5.77;5.27;;;;;23.60;99308.00;;;;2062355;28;20691;-56
2021/07/06 03:30:47;;;;;;;6.00;5.50;;;;;23.60;99348.00;;;;2060043;28;20707;-54
2021/07/06 03:31:48;;;;;;;5.77;5.27;;;;;23.50;99340.00;;;;2061723;28;20853;-54
2021/07/06 03:32:49;;;;;;;6.13;5.53;;;;;23.60;99348.00;;;;2062134;28;20222;-54
2021/07/06 03:33:49;;;;;;;6.33;5.70;;;;;23.60;99341.00;;;;2062224;28;20696;-56
2021/07/06 03:34:49;;;;;;;5.60;5.10;;;;;23.60;99336.00;;;;2061962;28;20309;-56
2021/07/06 03:35:50;;;;;;;6.20;5.60;;;;;23.60;99342.00;;;;2062282;28;20305;-53
2021/07/06 03:36:50;;;;;;;5.93;5.43;;;;;23.60;99332.00;;;;2062416;28;20203;-55
2021/07/06 03:37:50;;;;;;;6.20;5.60;;;;;23.60;99344.00;;;;2062247;28;20218;-55
2021/07/06 03:38:51;;;;;;;6.20;5.70;;;;;23.60;99337.00;;;;2062287;28;20211;-55
2021/07/06 03:39:51;;;;;;;6.50;5.70;;;;;23.60;99332.00;;;;2062324;28;20346;-55
2021/07/06 03:40:51;;;;;;;5.63;5.13;;;;;23.50;99321.00;;;;2061277;28;20207;-55
2021/07/06 03:41:52;;;;;;;5.30;4.80;;;;;23.60;99318.00;;;;2062464;28;20211;-53
2021/07/06 03:42:52;;;;;;;6.20;5.60;;;;;23.60;99326.00;;;;2061737;28;20318;-53
2021/07/06 03:43:52;;;;;;;6.50;5.90;;;;;23.60;99326.00;;;;2062290;28;20269;-54
2021/07/06 03:44:53;;;;;;;5.27;4.77;;;;;23.60;99324.00;;;;2062331;28;20691;-53
2021/07/06 03:45:53;;;;;;;6.10;5.50;;;;;23.60;99322.00;;;;2062315;28;20750;-55
2021/07/06 03:46:53;;;;;;;6.47;5.87;;;;;23.60;99333.00;;;;2062361;28;20211;-55
2021/07/06 03:47:54;;;;;;;5.63;5.03;;;;;23.60;99333.00;;;;2062282;28;20298;-56
2021/07/06 03:48:54;;;;;;;6.07;5.50;;;;;23.60;99339.00;;;;2062344;28;20211;-55
2021/07/06 03:49:54;;;;;;;5.40;4.90;;;;;23.60;99331.00;;;;2064322;28;20214;-55
2021/07/06 03:50:55;;;;;;;5.53;5.03;;;;;23.60;99336.00;;;;2063314;28;20210;-55
2021/07/06 03:51:55;;;;;;;5.77;5.27;;;;;23.60;99329.00;;;;2063644;28;20699;-55
2021/07/06 03:52:57;;;;;;;5.93;5.43;;;;;23.60;99327.00;;;;2062335;28;20569;-53
2021/07/06 03:53:57;;;;;;;5.60;5.10;;;;;23.60;99330.00;;;;2062235;28;20229;-54
2021/07/06 03:54:58;;;;;;;5.23;4.73;;;;;23.60;99323.00;;;;2061557;28;20325;-55
2021/07/06 03:55:58;;;;;;;4.80;4.40;;;;;23.60;99327.00;;;;2063116;28;20357;-54
2021/07/06 03:57:00;;;;;;;5.27;4.80;;;;;23.60;99335.00;;;;2070055;28;20229;-55
2021/07/06 03:58:00;;;;;;;5.47;5.00;;;;;23.60;99326.00;;;;2069876;28;20215;-54
2021/07/06 03:59:01;;;;;;;4.80;4.40;;;;;23.60;99327.00;;;;2069777;28;20289;-55
2021/07/06 04:00:04;;;;;;;5.50;5.00;;;;;23.60;99322.00;;;;2069249;28;20218;-53
2021/07/06 04:01:05;;;;;;;5.65;5.15;;;;;23.60;99321.00;;;;2068227;28;20209;-55
2021/07/06 04:02:05;;;;;;;6.00;5.50;;;;;23.60;99322.00;;;;2070094;28;20297;-55
2021/07/06 04:03:05;;;;;;;5.43;4.93;;;;;23.60;99315.00;;;;2069958;28;20213;-56
2021/07/06 04:04:06;;;;;;;6.20;5.60;;;;;23.60;99316.00;;;;2068706;28;20222;-56
2021/07/06 04:05:08;;;;;;;5.00;4.60;;;;;23.60;99320.00;;;;2069551;28;20349;-55
2021/07/06 04:06:08;;;;;;;5.70;5.20;;;;;23.60;99311.00;;;;2069783;28;20784;-54
2021/07/06 04:07:09;;;;;;;5.93;5.43;;;;;23.60;99311.00;;;;2069152;28;20301;-57
2021/07/06 04:08:09;;;;;;;5.37;4.87;;;;;23.60;99315.00;;;;2069589;28;20707;-54
2021/07/06 04:09:09;;;;;;;4.77;4.23;;;;;23.60;99307.00;;;;2070374;28;20568;-56
2021/07/06 04:10:12;;;;;;;4.90;4.50;;;;;23.40;99313.00;;;;2070091;28;20574;-55
2021/07/06 04:11:12;;;;;;;5.20;4.70;;;;;23.60;99300.00;;;;2069597;28;20848;-54
2021/07/06 04:12:12;;;;;;;5.13;4.70;;;;;23.60;99298.00;;;;2069019;28;20222;-53
2021/07/06 04:13:13;;;;;;;5.13;4.63;;;;;23.60;99298.00;;;;2069418;28;20218;-55
2021/07/06 04:14:13;;;;;;;5.70;5.20;;;;;23.60;99299.00;;;;2070032;28;20325;-55
2021/07/06 04:15:14;;;;;;;4.90;4.50;;;;;23.60;99298.00;;;;2070187;28;20222;-54
2021/07/06 04:16:14;;;;;;;4.83;4.43;;;;;23.60;99298.00;;;;2070388;28;20304;-55
2021/07/06 04:17:15;;;;;;;5.00;4.50;;;;;23.60;99292.00;;;;2070191;28;20626;-54
2021/07/06 04:18:15;;;;;;;5.10;4.60;;;;;23.60;99292.00;;;;2070320;28;20617;-55
2021/07/06 04:19:15;;;;;;;4.97;4.47;;;;;23.60;99292.00;;;;2069690;28;20214;-59
2021/07/06 04:20:16;;;;;;;5.20;4.70;;;;;23.60;99284.00;;;;2061321;28;20708;-58
2021/07/06 04:21:17;;;;;;;4.83;4.40;;;;;23.60;99285.00;;;;2063916;28;21053;-56
2021/07/06 04:22:17;;;;;;;4.77;4.30;;;;;23.60;99275.00;;;;2066351;28;20230;-53
2021/07/06 04:23:17;;;;;;;4.87;4.47;;;;;23.60;99268.00;;;;2064183;28;20211;-55
2021/07/06 04:24:18;;;;;;;5.37;4.87;;;;;23.60;99268.00;;;;2063521;28;20218;-55
2021/07/06 04:25:18;;;;;;;4.90;4.50;;;;;23.60;99273.00;;;;2063719;28;20266;-55
2021/07/06 04:26:19;;;;;;;4.67;4.23;;;;;23.60;99261.00;;;;2063655;28;20219;-55
2021/07/06 04:27:20;;;;;;;5.25;4.75;;;;;23.60;99257.00;;;;2063500;28;20215;-55
2021/07/06 04:28:20;;;;;;;5.43;4.93;;;;;23.60;99250.00;;;;2063405;28;20648;-54
2021/07/06 04:29:20;;;;;;;4.80;4.40;;;;;23.60;99248.00;;;;2063715;28;20833;-56
2021/07/06 04:30:21;;;;;;;5.03;4.53;;;;;23.60;99230.00;;;;2061989;28;20281;-54
2021/07/06 04:31:21;;;;;;;5.07;4.57;;;;;23.60;99251.00;;;;2062999;28;20523;-54
2021/07/06 04:32:22;;;;;;;4.90;4.33;;;;;23.60;99251.00;;;;2062932;28;20215;-55
2021/07/06 04:33:22;;;;;;;4.47;4.07;;;;;23.60;99251.00;;;;2063409;28;20215;-54
2021/07/06 04:34:22;;;;;;;4.77;4.37;;;;;23.60;99248.00;;;;2063364;28;20993;-54
2021/07/06 04:35:23;;;;;;;4.50;4.10;;;;;23.60;99249.00;;;;2063633;28;20494;-55
2021/07/06 04:36:23;;;;;;;4.50;4.10;;;;;23.60;99255.00;;;;2063220;28;20227;-55
2021/07/06 04:37:23;;;;;;;4.90;4.43;;;;;23.60;99252.00;;;;2063600;28;20662;-55
2021/07/06 04:38:24;;;;;;;4.37;3.97;;;;;23.60;99243.00;;;;2063580;28;20211;-54
2021/07/06 04:39:24;;;;;;;5.10;4.70;;;;;23.60;99246.00;;;;2063526;28;20227;-56
2021/07/06 04:40:25;;;;;;;4.40;4.00;;;;;23.60;99240.00;;;;2062047;28;20242;-55
2021/07/06 04:41:25;;;;;;;4.67;4.27;;;;;23.60;99247.00;;;;2063461;28;20219;-55
2021/07/06 04:42:25;;;;;;;3.80;3.50;;;;;23.60;99252.00;;;;2063555;28;20223;-56
2021/07/06 04:43:26;;;;;;;4.23;3.83;;;;;23.60;99263.00;;;;2063609;28;20277;-56
2021/07/06 04:44:26;;;;;;;4.83;4.43;;;;;23.60;99269.00;;;;2063495;28;20242;-54
2021/07/06 04:45:26;;;;;;;4.50;4.10;;;;;23.60;99272.00;;;;2063731;28;20237;-55
2021/07/06 04:46:27;;;;;;;4.20;3.83;;;;;23.60;99270.00;;;;2063780;28;20222;-56
2021/07/06 04:47:27;;;;;;;4.07;3.67;;;;;23.60;99259.00;;;;2063738;28;20222;-55
2021/07/06 04:48:28;;;;;;;4.07;3.67;;;;;23.60;99266.00;;;;2063502;28;20219;-56
2021/07/06 04:49:28;;;;;;;4.60;4.20;;;;;23.60;99259.00;;;;2064795;28;20226;-55
2021/07/06 04:50:29;;;;;;;4.67;4.27;;;;;23.60;99268.00;;;;2063421;28;20319;-55
2021/07/06 04:51:30;;;;;;;4.43;3.97;;;;;23.60;99267.00;;;;2064041;28;20309;-54
2021/07/06 04:52:31;;;;;;;4.17;3.87;;;;;23.60;99274.00;;;;2064076;28;20556;-55
2021/07/06 04:53:31;;;;;;;3.97;3.67;;;;;23.60;99278.00;;;;2063443;28;20449;-55
2021/07/06 04:54:31;;;;;;;4.63;4.17;;;;;23.60;99278.00;;;;2063068;28;20272;-54
2021/07/06 04:55:32;;;;;;;3.90;3.60;;;;;23.60;99281.00;;;;2063439;28;20215;-55
2021/07/06 04:56:32;;;;;;;3.60;3.30;;;;;23.60;99284.00;;;;2063730;28;20269;-54
2021/07/06 04:57:33;;;;;;;4.13;3.77;;;;;23.60;99278.00;;;;2063551;28;20242;-54
2021/07/06 04:58:35;;;;;;;3.90;3.57;;;;;23.60;99277.00;;;;2062893;28;20223;-55
2021/07/06 04:59:35;;;;;;;4.20;3.80;;;;;23.60;99291.00;;;;2068303;28;20242;-56
2021/07/06 05:00:36;;;;;;;4.50;4.10;;;;;23.60;99295.00;;;;2070314;28;20222;-55
2021/07/06 05:01:36;;;;;;;3.50;3.20;;;;;23.60;99299.00;;;;2071600;28;20226;-54